sensor_id;sensor_type;location;lat;lon;timestamp;P1;durP1;ratioP1;P2;durP2;ratioP2
50591;SDS011;36548;50.506;30.834;2022-07-06T00:00:16;7.55;;;5.10;;
50591;SDS011;36548;50.506;30.834;2022-07-06T00:01:27;6.27;;;5.07;;
50591;SDS011;36548;50.506;30.834;2022-07-06T00:03:02;6.57;;;4.93;;
50591;SDS011;36548;50.506;30.834;2022-07-06T00:04:15;6.77;;;4.93;;
50591;SDS011;36548;50.506;30.834;2022-07-06T00:05:27;6.45;;;5.20;;
50591;SDS011;36548;50.506;30.834;2022-07-06T00:06:42;5.67;;;4.48;;
50591;SDS011;36548;50.506;30.834;2022-07-06T00:07:53;6.42;;;5.08;;
50591;SDS011;36548;50.506;30.834;2022-07-06T00:09:08;6.66;;;5.38;;
50591;SDS011;36548;50.506;30.834;2022-07-06T00:10:21;5.62;;;4.98;;
50591;SDS011;36548;50.506;30.834;2022-07-06T00:11:49;7.47;;;5.35;;
50591;SDS011;36548;50.506;30.834;2022-07-06T00:13:01;6.12;;;4.85;;
50591;SDS011;36548;50.506;30.834;2022-07-06T00:14:11;8.25;;;5.20;;
50591;SDS011;36548;50.506;30.834;2022-07-06T00:15:27;5.93;;;5.22;;
50591;SDS011;36548;50.506;30.834;2022-07-06T00:16:38;10.98;;;6.10;;
50591;SDS011;36548;50.506;30.834;2022-07-06T00:17:54;6.65;;;5.40;;
50591;SDS011;36548;50.506;30.834;2022-07-06T00:19:05;6.63;;;5.20;;
50591;SDS011;36548;50.506;30.834;2022-07-06T00:20:34;6.15;;;5.30;;
50591;SDS011;36548;50.506;30.834;2022-07-06T00:21:44;5.75;;;5.15;;
50591;SDS011;36548;50.506;30.834;2022-07-06T00:23:01;8.15;;;5.47;;
50591;SDS011;36548;50.506;30.834;2022-07-06T00:24:12;6.72;;;5.48;;
50591;SDS011;36548;50.506;30.834;2022-07-06T00:25:23;5.73;;;5.18;;
50591;SDS011;36548;50.506;30.834;2022-07-06T00:26:38;6.93;;;5.25;;
50591;SDS011;36548;50.506;30.834;2022-07-06T00:27:48;6.52;;;4.98;;
50591;SDS011;36548;50.506;30.834;2022-07-06T00:28:58;8.35;;;5.68;;
50591;SDS011;36548;50.506;30.834;2022-07-06T00:30:09;7.92;;;5.68;;
50591;SDS011;36548;50.506;30.834;2022-07-06T00:31:24;7.88;;;5.32;;
50591;SDS011;36548;50.506;30.834;2022-07-06T00:32:34;6.42;;;5.72;;
50591;SDS011;36548;50.506;30.834;2022-07-06T00:33:44;6.60;;;5.40;;
50591;SDS011;36548;50.506;30.834;2022-07-06T00:35:00;6.28;;;5.43;;
50591;SDS011;36548;50.506;30.834;2022-07-06T00:36:09;6.28;;;5.15;;
50591;SDS011;36548;50.506;30.834;2022-07-06T00:37:27;10.40;;;5.55;;
50591;SDS011;36548;50.506;30.834;2022-07-06T00:38:38;7.65;;;5.52;;
50591;SDS011;36548;50.506;30.834;2022-07-06T00:40:06;7.03;;;6.13;;
50591;SDS011;36548;50.506;30.834;2022-07-06T00:41:23;8.63;;;5.68;;
50591;SDS011;36548;50.506;30.834;2022-07-06T00:42:41;7.00;;;5.20;;
50591;SDS011;36548;50.506;30.834;2022-07-06T00:43:58;9.15;;;5.72;;
50591;SDS011;36548;50.506;30.834;2022-07-06T00:45:11;7.83;;;5.55;;
50591;SDS011;36548;50.506;30.834;2022-07-06T00:46:40;8.02;;;5.95;;
50591;SDS011;36548;50.506;30.834;2022-07-06T00:47:58;7.18;;;5.02;;
50591;SDS011;36548;50.506;30.834;2022-07-06T00:49:08;7.15;;;5.40;;
50591;SDS011;36548;50.506;30.834;2022-07-06T00:50:26;7.57;;;5.57;;
50591;SDS011;36548;50.506;30.834;2022-07-06T00:53:00;5.95;;;5.35;;
50591;SDS011;36548;50.506;30.834;2022-07-06T00:54:11;9.15;;;6.02;;
50591;SDS011;36548;50.506;30.834;2022-07-06T00:55:24;6.63;;;5.65;;
50591;SDS011;36548;50.506;30.834;2022-07-06T00:56:35;7.57;;;5.52;;
50591;SDS011;36548;50.506;30.834;2022-07-06T00:57:45;8.10;;;5.90;;
50591;SDS011;36548;50.506;30.834;2022-07-06T00:58:55;7.60;;;6.05;;
50591;SDS011;36548;50.506;30.834;2022-07-06T01:00:08;8.02;;;6.08;;
50591;SDS011;36548;50.506;30.834;2022-07-06T01:01:20;7.02;;;5.67;;
50591;SDS011;36548;50.506;30.834;2022-07-06T01:02:32;6.82;;;5.53;;
50591;SDS011;36548;50.506;30.834;2022-07-06T01:03:44;6.68;;;5.40;;
50591;SDS011;36548;50.506;30.834;2022-07-06T01:04:54;6.95;;;5.67;;
50591;SDS011;36548;50.506;30.834;2022-07-06T01:06:11;6.95;;;5.55;;
50591;SDS011;36548;50.506;30.834;2022-07-06T01:07:21;6.60;;;5.78;;
50591;SDS011;36548;50.506;30.834;2022-07-06T01:08:33;7.35;;;5.80;;
50591;SDS011;36548;50.506;30.834;2022-07-06T01:09:45;8.62;;;5.97;;
50591;SDS011;36548;50.506;30.834;2022-07-06T01:10:55;7.30;;;5.65;;
50591;SDS011;36548;50.506;30.834;2022-07-06T01:12:07;9.25;;;6.08;;
50591;SDS011;36548;50.506;30.834;2022-07-06T01:13:25;6.50;;;5.72;;
50591;SDS011;36548;50.506;30.834;2022-07-06T01:14:37;6.00;;;5.55;;
50591;SDS011;36548;50.506;30.834;2022-07-06T01:15:47;6.53;;;5.92;;
50591;SDS011;36548;50.506;30.834;2022-07-06T01:16:59;6.47;;;5.55;;
50591;SDS011;36548;50.506;30.834;2022-07-06T01:18:11;6.93;;;6.15;;
50591;SDS011;36548;50.506;30.834;2022-07-06T01:19:23;7.45;;;5.75;;
50591;SDS011;36548;50.506;30.834;2022-07-06T01:20:34;7.64;;;5.60;;
50591;SDS011;36548;50.506;30.834;2022-07-06T01:21:45;7.58;;;5.90;;
50591;SDS011;36548;50.506;30.834;2022-07-06T01:22:59;6.15;;;5.55;;
50591;SDS011;36548;50.506;30.834;2022-07-06T01:24:10;7.37;;;5.78;;
50591;SDS011;36548;50.506;30.834;2022-07-06T01:25:27;8.47;;;5.27;;
50591;SDS011;36548;50.506;30.834;2022-07-06T01:26:36;5.50;;;5.00;;
50591;SDS011;36548;50.506;30.834;2022-07-06T01:27:49;8.80;;;6.10;;
50591;SDS011;36548;50.506;30.834;2022-07-06T01:28:59;6.85;;;5.70;;
50591;SDS011;36548;50.506;30.834;2022-07-06T01:30:18;7.32;;;6.07;;
50591;SDS011;36548;50.506;30.834;2022-07-06T01:31:29;7.20;;;5.82;;
50591;SDS011;36548;50.506;30.834;2022-07-06T01:32:40;6.38;;;5.70;;
50591;SDS011;36548;50.506;30.834;2022-07-06T01:33:51;10.08;;;5.43;;
50591;SDS011;36548;50.506;30.834;2022-07-06T01:35:02;6.65;;;5.45;;
50591;SDS011;36548;50.506;30.834;2022-07-06T01:36:20;8.07;;;5.43;;
50591;SDS011;36548;50.506;30.834;2022-07-06T01:37:32;5.73;;;5.23;;
50591;SDS011;36548;50.506;30.834;2022-07-06T01:38:48;6.30;;;5.50;;
50591;SDS011;36548;50.506;30.834;2022-07-06T01:40:01;5.98;;;5.38;;
50591;SDS011;36548;50.506;30.834;2022-07-06T01:41:31;7.97;;;5.58;;
50591;SDS011;36548;50.506;30.834;2022-07-06T01:42:47;6.93;;;5.78;;
50591;SDS011;36548;50.506;30.834;2022-07-06T01:43:57;6.72;;;6.03;;
50591;SDS011;36548;50.506;30.834;2022-07-06T01:45:08;8.15;;;5.72;;
50591;SDS011;36548;50.506;30.834;2022-07-06T01:46:22;6.57;;;5.93;;
50591;SDS011;36548;50.506;30.834;2022-07-06T01:47:33;7.52;;;5.45;;
50591;SDS011;36548;50.506;30.834;2022-07-06T01:48:44;6.70;;;6.10;;
50591;SDS011;36548;50.506;30.834;2022-07-06T01:50:00;10.13;;;5.65;;
50591;SDS011;36548;50.506;30.834;2022-07-06T01:51:14;6.15;;;5.28;;
50591;SDS011;36548;50.506;30.834;2022-07-06T01:52:30;6.58;;;5.60;;
50591;SDS011;36548;50.506;30.834;2022-07-06T01:53:43;6.47;;;5.47;;
50591;SDS011;36548;50.506;30.834;2022-07-06T01:55:10;8.37;;;5.68;;
50591;SDS011;36548;50.506;30.834;2022-07-06T01:56:23;7.06;;;6.08;;
50591;SDS011;36548;50.506;30.834;2022-07-06T01:57:42;6.90;;;6.05;;
50591;SDS011;36548;50.506;30.834;2022-07-06T02:00:10;6.43;;;5.58;;
50591;SDS011;36548;50.506;30.834;2022-07-06T02:01:28;8.55;;;6.35;;
50591;SDS011;36548;50.506;30.834;2022-07-06T02:02:38;8.68;;;5.88;;
50591;SDS011;36548;50.506;30.834;2022-07-06T02:03:55;6.53;;;5.78;;
50591;SDS011;36548;50.506;30.834;2022-07-06T02:05:05;6.10;;;5.25;;
50591;SDS011;36548;50.506;30.834;2022-07-06T02:06:28;5.87;;;5.28;;
50591;SDS011;36548;50.506;30.834;2022-07-06T02:07:39;6.80;;;6.15;;
50591;SDS011;36548;50.506;30.834;2022-07-06T02:08:50;8.43;;;6.12;;
50591;SDS011;36548;50.506;30.834;2022-07-06T02:10:01;7.18;;;5.82;;
50591;SDS011;36548;50.506;30.834;2022-07-06T02:11:11;6.87;;;6.17;;
50591;SDS011;36548;50.506;30.834;2022-07-06T02:12:26;7.82;;;5.62;;
50591;SDS011;36548;50.506;30.834;2022-07-06T02:13:36;6.45;;;5.70;;
50591;SDS011;36548;50.506;30.834;2022-07-06T02:14:53;7.70;;;6.22;;
50591;SDS011;36548;50.506;30.834;2022-07-06T02:16:03;8.65;;;5.90;;
50591;SDS011;36548;50.506;30.834;2022-07-06T02:17:20;6.80;;;5.60;;
50591;SDS011;36548;50.506;30.834;2022-07-06T02:18:31;8.43;;;5.93;;
50591;SDS011;36548;50.506;30.834;2022-07-06T02:19:58;7.00;;;6.07;;
50591;SDS011;36548;50.506;30.834;2022-07-06T02:21:10;7.25;;;6.55;;
50591;SDS011;36548;50.506;30.834;2022-07-06T02:22:25;7.65;;;6.05;;
50591;SDS011;36548;50.506;30.834;2022-07-06T02:23:37;7.48;;;5.47;;
50591;SDS011;36548;50.506;30.834;2022-07-06T02:24:49;6.45;;;5.83;;
50591;SDS011;36548;50.506;30.834;2022-07-06T02:26:06;6.00;;;5.40;;
50591;SDS011;36548;50.506;30.834;2022-07-06T02:28:27;7.58;;;5.92;;
50591;SDS011;36548;50.506;30.834;2022-07-06T02:29:45;9.42;;;6.38;;
50591;SDS011;36548;50.506;30.834;2022-07-06T02:30:56;11.10;;;6.40;;
50591;SDS011;36548;50.506;30.834;2022-07-06T02:32:12;7.75;;;6.38;;
50591;SDS011;36548;50.506;30.834;2022-07-06T02:33:25;8.58;;;6.48;;
50591;SDS011;36548;50.506;30.834;2022-07-06T02:34:52;6.80;;;6.05;;
50591;SDS011;36548;50.506;30.834;2022-07-06T02:36:02;7.30;;;6.35;;
50591;SDS011;36548;50.506;30.834;2022-07-06T02:37:15;9.50;;;6.60;;
50591;SDS011;36548;50.506;30.834;2022-07-06T02:38:28;7.00;;;5.90;;
50591;SDS011;36548;50.506;30.834;2022-07-06T02:39:38;6.65;;;5.85;;
50591;SDS011;36548;50.506;30.834;2022-07-06T02:40:54;7.18;;;5.42;;
50591;SDS011;36548;50.506;30.834;2022-07-06T02:42:06;7.25;;;6.13;;
50591;SDS011;36548;50.506;30.834;2022-07-06T02:43:23;6.66;;;5.94;;
50591;SDS011;36548;50.506;30.834;2022-07-06T02:44:37;7.12;;;6.08;;
50591;SDS011;36548;50.506;30.834;2022-07-06T02:46:04;7.72;;;5.95;;
50591;SDS011;36548;50.506;30.834;2022-07-06T02:47:15;7.57;;;6.10;;
50591;SDS011;36548;50.506;30.834;2022-07-06T02:48:26;7.10;;;5.72;;
50591;SDS011;36548;50.506;30.834;2022-07-06T02:49:36;7.32;;;5.62;;
50591;SDS011;36548;50.506;30.834;2022-07-06T02:50:47;6.98;;;6.28;;
50591;SDS011;36548;50.506;30.834;2022-07-06T02:52:04;8.10;;;6.50;;
50591;SDS011;36548;50.506;30.834;2022-07-06T02:53:17;7.45;;;5.92;;
50591;SDS011;36548;50.506;30.834;2022-07-06T02:54:35;7.82;;;6.72;;
50591;SDS011;36548;50.506;30.834;2022-07-06T02:55:44;6.80;;;6.22;;
50591;SDS011;36548;50.506;30.834;2022-07-06T02:56:55;7.12;;;5.85;;
50591;SDS011;36548;50.506;30.834;2022-07-06T02:59:16;8.78;;;6.48;;
50591;SDS011;36548;50.506;30.834;2022-07-06T03:00:27;6.98;;;5.55;;
50591;SDS011;36548;50.506;30.834;2022-07-06T03:01:45;7.25;;;6.50;;
50591;SDS011;36548;50.506;30.834;2022-07-06T03:02:55;6.72;;;6.00;;
50591;SDS011;36548;50.506;30.834;2022-07-06T03:04:06;7.38;;;6.05;;
50591;SDS011;36548;50.506;30.834;2022-07-06T03:06:26;9.85;;;7.63;;
50591;SDS011;36548;50.506;30.834;2022-07-06T03:07:37;10.43;;;7.97;;
50591;SDS011;36548;50.506;30.834;2022-07-06T03:08:52;9.58;;;7.58;;
50591;SDS011;36548;50.506;30.834;2022-07-06T03:10:03;9.15;;;7.38;;
50591;SDS011;36548;50.506;30.834;2022-07-06T03:11:19;11.25;;;7.80;;
50591;SDS011;36548;50.506;30.834;2022-07-06T03:12:29;8.35;;;7.45;;
50591;SDS011;36548;50.506;30.834;2022-07-06T03:13:57;8.30;;;7.50;;
50591;SDS011;36548;50.506;30.834;2022-07-06T03:16:28;7.98;;;6.08;;
50591;SDS011;36548;50.506;30.834;2022-07-06T03:17:39;7.42;;;6.72;;
50591;SDS011;36548;50.506;30.834;2022-07-06T03:18:58;9.10;;;6.50;;
50591;SDS011;36548;50.506;30.834;2022-07-06T03:20:09;7.55;;;6.27;;
50591;SDS011;36548;50.506;30.834;2022-07-06T03:21:20;10.20;;;6.40;;
50591;SDS011;36548;50.506;30.834;2022-07-06T03:22:30;6.75;;;6.15;;
50591;SDS011;36548;50.506;30.834;2022-07-06T03:23:41;7.13;;;6.45;;
50591;SDS011;36548;50.506;30.834;2022-07-06T03:24:51;7.30;;;6.55;;
50591;SDS011;36548;50.506;30.834;2022-07-06T03:26:07;8.12;;;6.30;;
50591;SDS011;36548;50.506;30.834;2022-07-06T03:27:19;10.20;;;7.10;;
50591;SDS011;36548;50.506;30.834;2022-07-06T03:28:35;9.40;;;7.27;;
50591;SDS011;36548;50.506;30.834;2022-07-06T03:29:47;11.42;;;7.48;;
50591;SDS011;36548;50.506;30.834;2022-07-06T03:31:15;11.35;;;7.23;;
50591;SDS011;36548;50.506;30.834;2022-07-06T03:32:27;10.53;;;6.78;;
50591;SDS011;36548;50.506;30.834;2022-07-06T03:33:46;14.27;;;7.77;;
50591;SDS011;36548;50.506;30.834;2022-07-06T03:34:59;9.27;;;6.67;;
50591;SDS011;36548;50.506;30.834;2022-07-06T03:36:15;6.85;;;6.18;;
50591;SDS011;36548;50.506;30.834;2022-07-06T03:37:24;8.05;;;6.48;;
50591;SDS011;36548;50.506;30.834;2022-07-06T03:38:51;8.77;;;7.12;;
50591;SDS011;36548;50.506;30.834;2022-07-06T03:40:07;8.35;;;6.90;;
50591;SDS011;36548;50.506;30.834;2022-07-06T03:41:18;8.90;;;6.73;;
50591;SDS011;36548;50.506;30.834;2022-07-06T03:42:33;8.08;;;6.42;;
50591;SDS011;36548;50.506;30.834;2022-07-06T03:43:43;11.27;;;6.82;;
50591;SDS011;36548;50.506;30.834;2022-07-06T03:45:10;7.75;;;6.78;;
50591;SDS011;36548;50.506;30.834;2022-07-06T03:46:21;11.22;;;6.70;;
50591;SDS011;36548;50.506;30.834;2022-07-06T03:47:34;8.70;;;7.00;;
50591;SDS011;36548;50.506;30.834;2022-07-06T03:48:44;11.15;;;7.10;;
50591;SDS011;36548;50.506;30.834;2022-07-06T03:49:54;13.70;;;7.80;;
50591;SDS011;36548;50.506;30.834;2022-07-06T03:51:06;8.58;;;6.77;;
50591;SDS011;36548;50.506;30.834;2022-07-06T03:52:16;6.82;;;6.23;;
50591;SDS011;36548;50.506;30.834;2022-07-06T03:53:28;7.87;;;6.85;;
50591;SDS011;36548;50.506;30.834;2022-07-06T03:54:38;9.27;;;6.85;;
50591;SDS011;36548;50.506;30.834;2022-07-06T03:55:54;8.48;;;6.48;;
50591;SDS011;36548;50.506;30.834;2022-07-06T03:57:23;10.52;;;7.23;;
50591;SDS011;36548;50.506;30.834;2022-07-06T03:58:40;7.50;;;6.38;;
50591;SDS011;36548;50.506;30.834;2022-07-06T03:59:50;10.03;;;6.70;;
50591;SDS011;36548;50.506;30.834;2022-07-06T04:01:26;10.23;;;6.88;;
50591;SDS011;36548;50.506;30.834;2022-07-06T04:02:43;7.15;;;6.40;;
50591;SDS011;36548;50.506;30.834;2022-07-06T04:03:54;8.47;;;6.62;;
50591;SDS011;36548;50.506;30.834;2022-07-06T04:05:10;9.23;;;6.20;;
50591;SDS011;36548;50.506;30.834;2022-07-06T04:06:21;8.74;;;6.48;;
50591;SDS011;36548;50.506;30.834;2022-07-06T04:07:50;9.05;;;6.90;;
50591;SDS011;36548;50.506;30.834;2022-07-06T04:09:03;8.30;;;6.20;;
50591;SDS011;36548;50.506;30.834;2022-07-06T04:10:18;8.62;;;5.90;;
50591;SDS011;36548;50.506;30.834;2022-07-06T04:11:32;6.73;;;6.08;;
50591;SDS011;36548;50.506;30.834;2022-07-06T04:12:47;8.15;;;6.03;;
50591;SDS011;36548;50.506;30.834;2022-07-06T04:13:59;7.50;;;6.25;;
50591;SDS011;36548;50.506;30.834;2022-07-06T04:15:26;10.75;;;6.23;;
50591;SDS011;36548;50.506;30.834;2022-07-06T04:16:37;9.20;;;5.85;;
50591;SDS011;36548;50.506;30.834;2022-07-06T04:19:09;7.37;;;6.27;;
50591;SDS011;36548;50.506;30.834;2022-07-06T04:20:22;7.47;;;6.12;;
50591;SDS011;36548;50.506;30.834;2022-07-06T04:21:37;8.07;;;6.45;;
50591;SDS011;36548;50.506;30.834;2022-07-06T04:22:52;6.50;;;5.83;;
50591;SDS011;36548;50.506;30.834;2022-07-06T04:24:03;6.27;;;5.67;;
50591;SDS011;36548;50.506;30.834;2022-07-06T04:25:15;8.05;;;6.05;;
50591;SDS011;36548;50.506;30.834;2022-07-06T04:26:27;7.93;;;5.92;;
50591;SDS011;36548;50.506;30.834;2022-07-06T04:27:42;11.33;;;6.50;;
50591;SDS011;36548;50.506;30.834;2022-07-06T04:28:54;20.65;;;18.62;;
50591;SDS011;36548;50.506;30.834;2022-07-06T04:30:05;7.65;;;6.90;;
50591;SDS011;36548;50.506;30.834;2022-07-06T04:31:23;7.25;;;6.30;;
50591;SDS011;36548;50.506;30.834;2022-07-06T04:32:35;6.57;;;5.60;;
50591;SDS011;36548;50.506;30.834;2022-07-06T04:33:44;7.73;;;5.80;;
50591;SDS011;36548;50.506;30.834;2022-07-06T04:34:55;6.77;;;5.80;;
50591;SDS011;36548;50.506;30.834;2022-07-06T04:36:06;6.67;;;5.88;;
50591;SDS011;36548;50.506;30.834;2022-07-06T04:37:21;7.63;;;5.28;;
50591;SDS011;36548;50.506;30.834;2022-07-06T04:38:31;9.52;;;6.00;;
50591;SDS011;36548;50.506;30.834;2022-07-06T04:41:07;13.42;;;6.08;;
50591;SDS011;36548;50.506;30.834;2022-07-06T04:42:17;7.35;;;5.73;;
50591;SDS011;36548;50.506;30.834;2022-07-06T04:43:44;11.07;;;6.30;;
50591;SDS011;36548;50.506;30.834;2022-07-06T04:45:03;8.70;;;5.55;;
50591;SDS011;36548;50.506;30.834;2022-07-06T04:46:15;6.52;;;5.70;;
50591;SDS011;36548;50.506;30.834;2022-07-06T04:47:30;6.30;;;5.63;;
50591;SDS011;36548;50.506;30.834;2022-07-06T04:48:40;8.13;;;5.40;;
50591;SDS011;36548;50.506;30.834;2022-07-06T04:50:10;6.65;;;5.20;;
50591;SDS011;36548;50.506;30.834;2022-07-06T04:51:26;6.12;;;4.98;;
50591;SDS011;36548;50.506;30.834;2022-07-06T04:52:36;5.90;;;4.83;;
50591;SDS011;36548;50.506;30.834;2022-07-06T04:53:47;6.50;;;5.18;;
50591;SDS011;36548;50.506;30.834;2022-07-06T04:54:56;7.57;;;5.53;;
50591;SDS011;36548;50.506;30.834;2022-07-06T04:57:18;6.68;;;5.52;;
50591;SDS011;36548;50.506;30.834;2022-07-06T04:58:28;6.50;;;5.45;;
50591;SDS011;36548;50.506;30.834;2022-07-06T04:59:37;7.70;;;5.15;;
50591;SDS011;36548;50.506;30.834;2022-07-06T05:00:49;5.85;;;4.90;;
50591;SDS011;36548;50.506;30.834;2022-07-06T05:02:05;5.67;;;4.55;;
50591;SDS011;36548;50.506;30.834;2022-07-06T05:03:20;5.18;;;4.65;;
50591;SDS011;36548;50.506;30.834;2022-07-06T05:04:31;5.90;;;4.45;;
50591;SDS011;36548;50.506;30.834;2022-07-06T05:05:42;5.73;;;5.03;;
50591;SDS011;36548;50.506;30.834;2022-07-06T05:06:58;7.08;;;4.90;;
50591;SDS011;36548;50.506;30.834;2022-07-06T05:08:09;6.70;;;4.38;;
50591;SDS011;36548;50.506;30.834;2022-07-06T05:09:25;5.15;;;4.65;;
50591;SDS011;36548;50.506;30.834;2022-07-06T05:10:35;4.48;;;4.05;;
50591;SDS011;36548;50.506;30.834;2022-07-06T05:12:04;8.00;;;4.70;;
50591;SDS011;36548;50.506;30.834;2022-07-06T05:13:20;5.65;;;4.95;;
50591;SDS011;36548;50.506;30.834;2022-07-06T05:14:31;6.45;;;4.38;;
50591;SDS011;36548;50.506;30.834;2022-07-06T05:15:47;8.57;;;4.80;;
50591;SDS011;36548;50.506;30.834;2022-07-06T05:16:57;7.60;;;4.52;;
50591;SDS011;36548;50.506;30.834;2022-07-06T05:18:24;5.00;;;4.30;;
50591;SDS011;36548;50.506;30.834;2022-07-06T05:19:44;6.43;;;4.88;;
50591;SDS011;36548;50.506;30.834;2022-07-06T05:20:58;5.25;;;4.20;;
50591;SDS011;36548;50.506;30.834;2022-07-06T05:23:24;9.70;;;4.43;;
50591;SDS011;36548;50.506;30.834;2022-07-06T05:24:35;4.98;;;4.30;;
50591;SDS011;36548;50.506;30.834;2022-07-06T05:25:46;7.42;;;4.40;;
50591;SDS011;36548;50.506;30.834;2022-07-06T05:26:59;4.87;;;4.05;;
50591;SDS011;36548;50.506;30.834;2022-07-06T05:28:09;6.65;;;4.25;;
50591;SDS011;36548;50.506;30.834;2022-07-06T05:29:21;7.90;;;4.05;;
50591;SDS011;36548;50.506;30.834;2022-07-06T05:30:34;4.72;;;4.18;;
50591;SDS011;36548;50.506;30.834;2022-07-06T05:31:49;5.90;;;4.20;;
50591;SDS011;36548;50.506;30.834;2022-07-06T05:33:00;6.42;;;4.60;;
50591;SDS011;36548;50.506;30.834;2022-07-06T05:34:11;5.40;;;4.47;;
50591;SDS011;36548;50.506;30.834;2022-07-06T05:35:22;6.93;;;4.15;;
50591;SDS011;36548;50.506;30.834;2022-07-06T05:36:37;5.08;;;4.08;;
50591;SDS011;36548;50.506;30.834;2022-07-06T05:37:52;6.32;;;4.64;;
50591;SDS011;36548;50.506;30.834;2022-07-06T05:39:04;7.88;;;4.28;;
50591;SDS011;36548;50.506;30.834;2022-07-06T05:40:17;5.94;;;4.24;;
50591;SDS011;36548;50.506;30.834;2022-07-06T05:41:52;5.93;;;4.10;;
50591;SDS011;36548;50.506;30.834;2022-07-06T05:43:03;5.98;;;4.25;;
50591;SDS011;36548;50.506;30.834;2022-07-06T05:44:13;9.43;;;4.23;;
50591;SDS011;36548;50.506;30.834;2022-07-06T05:45:31;7.40;;;4.53;;
50591;SDS011;36548;50.506;30.834;2022-07-06T05:46:41;4.90;;;3.80;;
50591;SDS011;36548;50.506;30.834;2022-07-06T05:47:51;4.83;;;4.37;;
50591;SDS011;36548;50.506;30.834;2022-07-06T05:49:25;4.60;;;3.70;;
50591;SDS011;36548;50.506;30.834;2022-07-06T05:50:56;5.85;;;3.90;;
50591;SDS011;36548;50.506;30.834;2022-07-06T05:52:12;8.10;;;4.27;;
50591;SDS011;36548;50.506;30.834;2022-07-06T05:53:23;7.38;;;3.80;;
50591;SDS011;36548;50.506;30.834;2022-07-06T05:54:50;7.07;;;3.57;;
50591;SDS011;36548;50.506;30.834;2022-07-06T05:56:00;6.30;;;3.55;;
50591;SDS011;36548;50.506;30.834;2022-07-06T05:57:15;5.90;;;3.97;;
50591;SDS011;36548;50.506;30.834;2022-07-06T05:58:27;6.50;;;3.47;;
50591;SDS011;36548;50.506;30.834;2022-07-06T05:59:40;3.65;;;3.10;;
50591;SDS011;36548;50.506;30.834;2022-07-06T06:00:53;3.98;;;3.10;;
50591;SDS011;36548;50.506;30.834;2022-07-06T06:02:08;5.33;;;3.27;;
50591;SDS011;36548;50.506;30.834;2022-07-06T06:03:18;4.75;;;3.80;;
50591;SDS011;36548;50.506;30.834;2022-07-06T06:04:33;7.48;;;3.53;;
50591;SDS011;36548;50.506;30.834;2022-07-06T06:06:56;7.00;;;3.42;;
50591;SDS011;36548;50.506;30.834;2022-07-06T06:09:17;4.28;;;3.48;;
50591;SDS011;36548;50.506;30.834;2022-07-06T06:10:33;7.93;;;3.58;;
50591;SDS011;36548;50.506;30.834;2022-07-06T06:11:46;6.56;;;3.92;;
50591;SDS011;36548;50.506;30.834;2022-07-06T06:12:57;4.67;;;3.93;;
50591;SDS011;36548;50.506;30.834;2022-07-06T06:14:07;4.35;;;3.80;;
50591;SDS011;36548;50.506;30.834;2022-07-06T06:16:28;6.72;;;3.58;;
50591;SDS011;36548;50.506;30.834;2022-07-06T06:17:41;5.55;;;3.95;;
50591;SDS011;36548;50.506;30.834;2022-07-06T06:18:51;5.72;;;3.60;;
50591;SDS011;36548;50.506;30.834;2022-07-06T06:20:01;3.52;;;3.22;;
50591;SDS011;36548;50.506;30.834;2022-07-06T06:21:12;3.95;;;3.20;;
50591;SDS011;36548;50.506;30.834;2022-07-06T06:22:22;4.87;;;3.33;;
50591;SDS011;36548;50.506;30.834;2022-07-06T06:23:33;3.63;;;2.93;;
50591;SDS011;36548;50.506;30.834;2022-07-06T06:24:42;3.48;;;3.18;;
50591;SDS011;36548;50.506;30.834;2022-07-06T06:25:53;3.35;;;2.93;;
50591;SDS011;36548;50.506;30.834;2022-07-06T06:27:08;3.52;;;2.70;;
50591;SDS011;36548;50.506;30.834;2022-07-06T06:28:20;6.47;;;3.15;;
50591;SDS011;36548;50.506;30.834;2022-07-06T06:29:31;3.26;;;2.92;;
50591;SDS011;36548;50.506;30.834;2022-07-06T06:30:44;5.05;;;2.95;;
50591;SDS011;36548;50.506;30.834;2022-07-06T06:31:55;6.02;;;3.43;;
50591;SDS011;36548;50.506;30.834;2022-07-06T06:33:12;4.75;;;3.15;;
50591;SDS011;36548;50.506;30.834;2022-07-06T06:34:25;4.17;;;3.32;;
50591;SDS011;36548;50.506;30.834;2022-07-06T06:35:37;5.45;;;3.20;;
50591;SDS011;36548;50.506;30.834;2022-07-06T06:36:54;4.50;;;3.25;;
50591;SDS011;36548;50.506;30.834;2022-07-06T06:38:04;4.55;;;2.92;;
50591;SDS011;36548;50.506;30.834;2022-07-06T06:39:14;5.52;;;3.22;;
50591;SDS011;36548;50.506;30.834;2022-07-06T06:40:29;4.48;;;3.22;;
50591;SDS011;36548;50.506;30.834;2022-07-06T06:41:40;5.10;;;3.30;;
50591;SDS011;36548;50.506;30.834;2022-07-06T06:42:55;5.18;;;3.75;;
50591;SDS011;36548;50.506;30.834;2022-07-06T06:44:06;6.15;;;3.67;;
50591;SDS011;36548;50.506;30.834;2022-07-06T06:45:33;8.13;;;3.32;;
50591;SDS011;36548;50.506;30.834;2022-07-06T06:46:43;3.75;;;2.90;;
50591;SDS011;36548;50.506;30.834;2022-07-06T06:47:53;3.50;;;2.70;;
50591;SDS011;36548;50.506;30.834;2022-07-06T06:49:08;9.00;;;3.17;;
50591;SDS011;36548;50.506;30.834;2022-07-06T06:50:20;4.17;;;2.55;;
50591;SDS011;36548;50.506;30.834;2022-07-06T06:51:32;5.03;;;2.62;;
50591;SDS011;36548;50.506;30.834;2022-07-06T06:52:50;4.00;;;2.80;;
50591;SDS011;36548;50.506;30.834;2022-07-06T06:54:02;4.28;;;2.87;;
50591;SDS011;36548;50.506;30.834;2022-07-06T06:55:11;6.00;;;2.80;;
50591;SDS011;36548;50.506;30.834;2022-07-06T06:56:27;8.63;;;2.80;;
50591;SDS011;36548;50.506;30.834;2022-07-06T06:57:38;5.05;;;2.55;;
50591;SDS011;36548;50.506;30.834;2022-07-06T06:58:48;4.75;;;3.00;;
50591;SDS011;36548;50.506;30.834;2022-07-06T07:00:00;8.98;;;3.17;;
50591;SDS011;36548;50.506;30.834;2022-07-06T07:01:17;4.85;;;2.67;;
50591;SDS011;36548;50.506;30.834;2022-07-06T07:02:26;13.00;;;3.50;;
50591;SDS011;36548;50.506;30.834;2022-07-06T07:03:42;7.83;;;3.20;;
50591;SDS011;36548;50.506;30.834;2022-07-06T07:04:52;4.73;;;2.63;;
50591;SDS011;36548;50.506;30.834;2022-07-06T07:06:22;4.00;;;2.65;;
50591;SDS011;36548;50.506;30.834;2022-07-06T07:07:38;5.83;;;2.63;;
50591;SDS011;36548;50.506;30.834;2022-07-06T07:08:49;3.17;;;2.80;;
50591;SDS011;36548;50.506;30.834;2022-07-06T07:09:59;3.23;;;2.90;;
50591;SDS011;36548;50.506;30.834;2022-07-06T07:11:10;4.25;;;2.55;;
50591;SDS011;36548;50.506;30.834;2022-07-06T07:12:26;4.50;;;2.43;;
50591;SDS011;36548;50.506;30.834;2022-07-06T07:13:36;4.35;;;2.65;;
50591;SDS011;36548;50.506;30.834;2022-07-06T07:14:46;4.55;;;2.45;;
50591;SDS011;36548;50.506;30.834;2022-07-06T07:15:56;5.37;;;2.77;;
50591;SDS011;36548;50.506;30.834;2022-07-06T07:17:08;4.10;;;2.60;;
50591;SDS011;36548;50.506;30.834;2022-07-06T07:18:18;2.77;;;2.13;;
50591;SDS011;36548;50.506;30.834;2022-07-06T07:19:29;7.55;;;2.75;;
50591;SDS011;36548;50.506;30.834;2022-07-06T07:20:56;3.07;;;1.95;;
50591;SDS011;36548;50.506;30.834;2022-07-06T07:22:07;4.00;;;2.46;;
50591;SDS011;36548;50.506;30.834;2022-07-06T07:23:17;3.62;;;2.68;;
50591;SDS011;36548;50.506;30.834;2022-07-06T07:24:52;4.32;;;2.52;;
50591;SDS011;36548;50.506;30.834;2022-07-06T07:26:02;2.82;;;2.25;;
50591;SDS011;36548;50.506;30.834;2022-07-06T07:27:24;7.90;;;2.70;;
50591;SDS011;36548;50.506;30.834;2022-07-06T07:28:37;5.32;;;2.57;;
50591;SDS011;36548;50.506;30.834;2022-07-06T07:29:53;3.03;;;2.30;;
50591;SDS011;36548;50.506;30.834;2022-07-06T07:31:02;4.40;;;2.28;;
50591;SDS011;36548;50.506;30.834;2022-07-06T07:32:40;5.05;;;2.70;;
50591;SDS011;36548;50.506;30.834;2022-07-06T07:33:51;4.88;;;2.73;;
50591;SDS011;36548;50.506;30.834;2022-07-06T07:35:07;3.92;;;2.60;;